createdAt,value
2018-12-22T00:02:42.737Z,89.61
2018-12-22T00:06:03.420Z,89.49
2018-12-22T00:09:23.290Z,87.62
2018-12-22T00:12:43.631Z,86.84
2018-12-22T00:16:03.236Z,86.38
2018-12-22T00:19:22.148Z,85.74
2018-12-22T00:22:42.355Z,85.76
2018-12-22T00:26:02.336Z,86.37
2018-12-22T00:29:22.641Z,85.68
2018-12-22T00:32:43.075Z,84.88
2018-12-22T00:36:03.128Z,85.03
2018-12-22T00:39:23.163Z,85.18
2018-12-22T00:42:42.652Z,85.73
2018-12-22T00:45:50.432Z,86.02
2018-12-22T00:48:57.980Z,86.54
2018-12-22T00:52:05.900Z,86.71
2018-12-22T00:55:13.924Z,87.38
2018-12-22T00:58:21.495Z,88.69
2018-12-22T01:01:28.991Z,89.19
2018-12-22T01:04:48.217Z,90.35
2018-12-22T01:08:08.596Z,90.90
2018-12-22T01:11:19.136Z,92.13
2018-12-22T01:14:26.829Z,92.68
2018-12-22T01:17:34.268Z,93.88
2018-12-22T01:20:41.748Z,94.47
2018-12-22T01:23:49.221Z,94.52
2018-12-22T01:27:08.379Z,94.35
2018-12-22T01:30:27.052Z,94.80
2018-12-22T01:33:48.632Z,95.18
2018-12-22T01:37:08.215Z,95.10
2018-12-22T01:40:15.839Z,94.51
2018-12-22T01:43:23.316Z,94.45
2018-12-22T01:46:30.816Z,94.64
2018-12-22T01:49:38.404Z,93.93
2018-12-22T01:52:45.900Z,93.94
2018-12-22T01:55:53.587Z,93.55
2018-12-22T01:59:01.126Z,94.35
2018-12-22T02:02:08.588Z,94.52
2018-12-22T02:05:28.613Z,93.79
2018-12-22T02:08:36.110Z,93.93
2018-12-22T02:11:43.877Z,93.64
2018-12-22T02:14:51.393Z,93.36
2018-12-22T02:18:11.816Z,93.43
2018-12-22T02:21:19.299Z,93.14
2018-12-22T02:24:26.748Z,93.33
2018-12-22T02:27:34.327Z,92.61
2018-12-22T02:30:41.780Z,92.81
2018-12-22T02:33:49.264Z,93.52
2018-12-22T02:37:09.592Z,93.20
2018-12-22T02:40:17.245Z,92.99
2018-12-22T02:43:25.074Z,93.13
2018-12-22T02:46:44.800Z,93.72
2018-12-22T02:50:09.807Z,93.89
2018-12-22T02:53:30.261Z,93.17
2018-12-22T02:56:50.265Z,93.83
2018-12-22T03:00:12.347Z,94.21
2018-12-22T03:03:21.460Z,94.15
2018-12-22T03:06:29.227Z,94.39
2018-12-22T03:09:49.287Z,94.86
2018-12-22T03:12:57.135Z,95.28
2018-12-22T03:16:04.592Z,94.65
2018-12-22T03:19:12.053Z,94.67
2018-12-22T03:22:19.526Z,94.61
2018-12-22T03:25:27.394Z,94.55
2018-12-22T03:28:34.961Z,94.28
2018-12-22T03:31:42.490Z,94.20
2018-12-22T03:34:50.004Z,94.78
2018-12-22T03:37:57.851Z,94.44
2018-12-22T03:41:06.431Z,94.78
2018-12-22T03:44:13.891Z,94.78
2018-12-22T03:47:21.372Z,94.45
2018-12-22T03:50:28.880Z,94.74
2018-12-22T03:53:48.748Z,95.12
2018-12-22T03:56:56.222Z,95.14
2018-12-22T04:00:05.657Z,95.50
2018-12-22T04:03:13.133Z,95.27
2018-12-22T04:06:20.608Z,94.98
2018-12-22T04:09:40.675Z,94.79
2018-12-22T04:13:02.168Z,95.12
2018-12-22T04:16:20.806Z,94.03
2018-12-22T04:19:40.384Z,94.01
2018-12-22T04:22:59.688Z,93.60
2018-12-22T04:26:20.247Z,94.17
2018-12-22T04:29:39.233Z,94.54
2018-12-22T04:32:46.706Z,94.45
2018-12-22T04:35:54.195Z,94.16
2018-12-22T04:39:01.764Z,94.35
2018-12-22T04:42:21.388Z,93.99
2018-12-22T04:45:40.224Z,93.38
2018-12-22T04:49:02.651Z,93.11
2018-12-22T04:52:10.121Z,93.82
2018-12-22T04:55:17.704Z,94.02
2018-12-22T04:58:25.248Z,94.00
2018-12-22T05:01:32.704Z,93.98
2018-12-22T05:04:52.741Z,94.60
2018-12-22T05:08:13.412Z,93.67
2018-12-22T05:11:20.901Z,94.55
2018-12-22T05:14:28.913Z,94.90
2018-12-22T05:17:36.485Z,94.05
2018-12-22T05:20:44.353Z,93.81
2018-12-22T05:23:51.824Z,93.68
2018-12-22T05:26:59.270Z,93.75
2018-12-22T05:30:08.712Z,93.25
2018-12-22T05:33:16.178Z,94.05
2018-12-22T05:39:40.584Z,93.20
2018-12-22T05:42:48.238Z,93.25
2018-12-22T05:45:55.991Z,92.89
2018-12-22T05:49:03.824Z,93.19
2018-12-22T05:52:24.236Z,93.53
2018-12-22T05:55:31.924Z,93.36
2018-12-22T05:58:39.471Z,93.43
2018-12-22T06:01:46.943Z,93.46
2018-12-22T06:04:54.666Z,93.46
2018-12-22T06:08:02.863Z,93.10
2018-12-22T06:11:10.387Z,93.01
2018-12-22T06:14:17.851Z,92.71
2018-12-22T06:17:38.168Z,92.89
2018-12-22T06:20:59.600Z,92.51
2018-12-22T06:24:18.378Z,92.95
2018-12-22T06:27:38.520Z,93.14
2018-12-22T06:30:46.043Z,93.08
2018-12-22T06:33:53.508Z,92.93
2018-12-22T06:37:01.061Z,92.90
2018-12-22T06:40:09.131Z,92.88
2018-12-22T06:43:16.581Z,92.25
2018-12-22T06:49:42.644Z,92.83
2018-12-22T06:53:01.432Z,92.58
2018-12-22T06:56:22.096Z,93.37
2018-12-22T06:59:42.539Z,92.91
2018-12-22T07:03:03.252Z,93.00
2018-12-22T07:09:29.437Z,93.65
2018-12-22T07:12:50.536Z,93.01
2018-12-22T07:15:58.351Z,93.20
2018-12-22T07:19:06.312Z,93.56
2018-12-22T07:22:13.839Z,93.19
2018-12-22T07:25:21.351Z,93.17
2018-12-22T07:28:28.925Z,93.68
2018-12-22T07:31:36.400Z,93.48
2018-12-22T07:34:57.664Z,93.35
2018-12-22T07:38:15.655Z,92.90
2018-12-22T07:41:37.043Z,93.42
2018-12-22T07:44:44.491Z,92.87
2018-12-22T07:47:52.129Z,92.64
2018-12-22T07:50:59.872Z,92.42
2018-12-22T07:54:07.519Z,93.12
2018-12-22T07:57:14.992Z,93.14
2018-12-22T08:00:22.568Z,93.47
2018-12-22T08:03:43.452Z,93.09
2018-12-22T08:07:03.932Z,92.50
2018-12-22T08:10:24.308Z,92.36
2018-12-22T08:13:43.525Z,92.37
2018-12-22T08:17:03.693Z,91.95
2018-12-22T08:20:23.185Z,91.75
2018-12-22T08:23:43.828Z,91.69
2018-12-22T08:27:05.825Z,92.13
2018-12-22T08:30:13.363Z,92.20
2018-12-22T08:33:21.158Z,91.69
2018-12-22T08:36:28.781Z,91.99
2018-12-22T08:39:47.143Z,91.91
2018-12-22T08:43:05.930Z,91.85
2018-12-22T08:46:27.152Z,90.42
2018-12-22T08:49:34.679Z,91.26
2018-12-22T08:52:42.255Z,90.87
2018-12-22T08:56:02.896Z,90.12
2018-12-22T08:59:10.541Z,90.25
2018-12-22T09:02:18.054Z,89.88
2018-12-22T09:05:25.532Z,89.69
2018-12-22T09:08:33.092Z,90.07
2018-12-22T09:11:51.280Z,90.23
2018-12-22T09:15:14.095Z,89.79
2018-12-22T09:18:21.574Z,89.17
2018-12-22T09:21:29.026Z,89.34
2018-12-22T09:24:48.513Z,89.27
2018-12-22T09:27:56.041Z,89.49
2018-12-22T09:34:22.172Z,88.59
2018-12-22T09:37:41.449Z,88.90
2018-12-22T09:41:01.112Z,88.90
2018-12-22T09:44:08.689Z,88.68
2018-12-22T09:47:16.161Z,88.11
2018-12-22T09:50:23.743Z,88.22
2018-12-22T09:53:31.208Z,88.15
2018-12-22T09:56:51.549Z,88.37
2018-12-22T10:00:14.376Z,87.41
2018-12-22T10:03:21.852Z,88.11
2018-12-22T10:10:15.754Z,88.39
2018-12-22T10:13:38.247Z,87.95
2018-12-22T10:16:58.028Z,88.08
2018-12-22T10:20:18.700Z,87.93
2018-12-22T10:23:41.171Z,87.84
2018-12-22T10:27:01.288Z,87.56
2018-12-22T10:30:15.196Z,87.31
2018-12-22T10:33:22.768Z,87.15
2018-12-22T10:36:43.469Z,87.74
2018-12-22T10:39:50.901Z,87.28
2018-12-22T10:42:58.461Z,88.03
2018-12-22T10:46:06.092Z,87.41
2018-12-22T10:49:14.024Z,85.94
2018-12-22T10:52:36.640Z,84.12
2018-12-22T10:55:44.136Z,83.53
2018-12-22T10:58:51.656Z,83.92
2018-12-22T11:01:59.112Z,83.33
2018-12-22T11:05:11.036Z,83.55
2018-12-22T11:08:19.335Z,83.05
2018-12-22T11:11:26.809Z,83.77
2018-12-22T11:14:34.356Z,84.89
2018-12-22T11:17:41.977Z,84.44
2018-12-22T11:21:04.510Z,84.72
2018-12-22T11:24:12.063Z,85.48
2018-12-22T11:27:19.703Z,85.94
2018-12-22T11:30:43.676Z,86.31
2018-12-22T11:34:10.931Z,86.88
2018-12-22T11:37:18.478Z,86.20
2018-12-22T11:40:26.128Z,86.81
2018-12-22T11:43:33.611Z,86.42
2018-12-22T11:47:09.899Z,87.82
2018-12-22T11:50:23.362Z,88.02
2018-12-22T11:53:30.812Z,87.94
2018-12-22T11:56:38.803Z,88.78
2018-12-22T12:00:11.200Z,88.81
2018-12-22T12:03:18.723Z,88.86
2018-12-22T12:06:45.891Z,88.22
2018-12-22T12:10:13.013Z,88.38
2018-12-22T12:13:37.732Z,89.04
2018-12-22T12:19:23.093Z,89.50
2018-12-22T12:22:30.632Z,89.34
2018-12-22T12:25:38.108Z,89.21
2018-12-22T12:28:45.864Z,89.22
2018-12-22T12:32:08.033Z,88.97
2018-12-22T12:35:15.973Z,88.48
2018-12-22T12:38:23.695Z,89.20
2018-12-22T12:41:31.732Z,88.91
2018-12-22T12:44:42.773Z,88.85
2018-12-22T12:48:08.600Z,88.31
2018-12-22T12:51:29.304Z,88.12
2018-12-22T12:54:36.796Z,88.56
2018-12-22T12:57:44.315Z,88.68
2018-12-22T13:00:52.184Z,88.23
2018-12-22T13:04:17.730Z,88.28
2018-12-22T13:07:40.192Z,88.69
2018-12-22T13:10:47.764Z,87.88
2018-12-22T13:14:02.343Z,87.73
2018-12-22T13:17:26.095Z,87.89
2018-12-22T13:20:33.612Z,87.86
2018-12-22T13:23:41.112Z,87.88
2018-12-22T13:26:48.583Z,87.55
2018-12-22T13:29:56.195Z,87.93
2018-12-22T13:33:18.992Z,88.52
2018-12-22T13:36:34.296Z,89.25
2018-12-22T13:39:36.428Z,89.35
2018-12-22T13:42:58.940Z,89.53
2018-12-22T13:46:06.860Z,89.59
2018-12-22T13:49:15.250Z,89.36
2018-12-22T13:52:23.100Z,89.06
2018-12-22T13:55:31.097Z,89.51
2018-12-22T14:02:02.956Z,89.64
2018-12-22T14:05:15.604Z,89.60
2018-12-22T14:11:41.564Z,90.61
2018-12-22T14:18:54.173Z,89.82
2018-12-22T14:22:01.776Z,90.80
2018-12-22T14:25:30.696Z,91.21
2018-12-22T14:31:58.165Z,90.48
2018-12-22T14:35:27.264Z,90.35
2018-12-22T14:41:56.035Z,90.81
2018-12-22T14:45:18.363Z,90.36
2018-12-22T14:51:44.756Z,90.65
2018-12-22T14:55:09.593Z,90.61
2018-12-22T15:01:47.856Z,91.39
2018-12-22T15:08:15.312Z,91.68
2018-12-22T15:11:38.090Z,91.78
2018-12-22T15:15:00.737Z,93.05
2018-12-22T15:18:25.584Z,94.28
2018-12-22T15:21:45.560Z,94.17
2018-12-22T15:28:13.731Z,94.18
2018-12-22T15:31:37.204Z,94.14
2018-12-22T15:38:03.476Z,93.90
2018-12-22T15:41:22.042Z,93.87
2018-12-22T15:47:46.732Z,94.36
2018-12-22T15:50:54.284Z,94.54
2018-12-22T15:54:01.761Z,94.52
2018-12-22T15:57:09.670Z,94.58
2018-12-22T16:00:32.671Z,94.17
2018-12-22T16:03:40.207Z,94.99
2018-12-22T16:06:47.687Z,94.91
2018-12-22T16:13:16.268Z,95.02
2018-12-22T16:16:40.096Z,94.37
2018-12-22T16:23:08.603Z,94.50
2018-12-22T16:26:16.101Z,94.53
2018-12-22T16:29:32.946Z,94.07
2018-12-22T16:32:41.441Z,93.57
2018-12-22T16:35:49.212Z,94.23
2018-12-22T16:42:19.100Z,94.34
2018-12-22T16:45:27.111Z,93.89
2018-12-22T16:51:58.399Z,93.49
2018-12-22T16:55:19.997Z,93.36
2018-12-22T17:02:00.385Z,93.30
2018-12-22T17:08:26.556Z,93.07
2018-12-22T17:11:46.319Z,92.54
2018-12-22T17:15:09.469Z,92.53
2018-12-22T17:18:17.023Z,92.21
2018-12-22T17:22:24.968Z,91.69
2018-12-22T17:25:58.643Z,91.35
2018-12-22T17:29:20.995Z,91.84
2018-12-22T17:32:28.522Z,91.97
2018-12-22T17:35:38.317Z,91.12
2018-12-22T17:38:45.804Z,91.56
2018-12-22T17:41:53.328Z,91.23
2018-12-22T17:45:00.772Z,91.05
2018-12-22T17:48:08.316Z,91.46
2018-12-22T17:51:15.791Z,91.79
2018-12-22T17:54:36.135Z,91.84
2018-12-22T17:57:55.700Z,91.90
2018-12-22T18:01:17.368Z,91.09
2018-12-22T18:07:44.049Z,91.59
2018-12-22T18:10:51.780Z,91.88
2018-12-22T18:13:59.224Z,92.26
2018-12-22T18:17:06.692Z,92.15
2018-12-22T18:20:28.155Z,91.87
2018-12-22T18:23:35.696Z,91.29
2018-12-22T18:26:43.398Z,91.16
2018-12-22T18:29:50.955Z,91.05
2018-12-22T18:33:12.399Z,90.59
2018-12-22T18:36:34.920Z,90.91
2018-12-22T18:39:42.481Z,91.11
2018-12-22T18:42:49.965Z,91.31
2018-12-22T18:45:57.516Z,91.27
2018-12-22T18:49:06.168Z,90.59
2018-12-22T18:52:13.655Z,91.28
2018-12-22T18:55:33.525Z,90.96
2018-12-22T19:01:59.214Z,91.35
2018-12-22T19:08:28.365Z,90.32
2018-12-22T19:11:35.892Z,90.23
2018-12-22T19:18:14.663Z,90.53
2018-12-22T19:21:33.785Z,90.96
2018-12-22T19:24:53.784Z,91.27
2018-12-22T19:28:01.371Z,90.86
2018-12-22T19:31:08.936Z,91.25
2018-12-22T19:37:37.011Z,90.99
2018-12-22T19:40:57.224Z,91.71
2018-12-22T19:44:18.098Z,91.10
2018-12-22T19:47:25.937Z,91.54
2018-12-22T19:53:55.231Z,90.60
2018-12-22T19:57:15.472Z,90.39
2018-12-22T20:00:36.811Z,90.16
2018-12-22T20:04:02.066Z,90.00
2018-12-22T20:07:06.084Z,90.31
2018-12-22T20:10:13.984Z,90.52
2018-12-22T20:13:35.624Z,89.95
2018-12-22T20:16:43.128Z,89.69
2018-12-22T20:19:50.744Z,89.86
2018-12-22T20:22:58.196Z,89.86
2018-12-22T20:26:05.676Z,89.63
2018-12-22T20:29:28.215Z,89.80
2018-12-22T20:32:48.757Z,89.78
2018-12-22T20:36:08.597Z,89.39
2018-12-22T20:39:16.130Z,89.71
2018-12-22T20:42:23.595Z,89.09
2018-12-22T20:45:31.061Z,89.48
2018-12-22T20:48:38.853Z,89.68
2018-12-22T20:51:46.332Z,89.37
2018-12-22T20:54:53.843Z,89.14
2018-12-22T20:58:01.362Z,89.15
2018-12-22T21:01:08.839Z,89.17
2018-12-22T21:04:31.712Z,88.72
2018-12-22T21:07:54.435Z,88.98
2018-12-22T21:11:17.932Z,88.77
2018-12-22T21:14:25.448Z,89.16
2018-12-22T21:17:32.900Z,89.66
2018-12-22T21:20:40.452Z,89.87
2018-12-22T21:23:47.988Z,89.26
2018-12-22T21:27:08.627Z,89.99
2018-12-22T21:30:16.151Z,89.93
2018-12-22T21:33:23.696Z,89.24
2018-12-22T21:36:31.218Z,89.25
2018-12-22T21:39:38.793Z,89.20
2018-12-22T21:42:59.420Z,89.43
2018-12-22T21:46:06.364Z,89.42
2018-12-22T21:49:13.923Z,89.89
2018-12-22T21:52:21.510Z,89.97
2018-12-22T21:55:28.974Z,89.35
2018-12-22T21:58:36.596Z,89.22
2018-12-22T22:01:44.095Z,89.13
2018-12-22T22:05:07.054Z,89.05
2018-12-22T22:08:14.591Z,88.71
2018-12-22T22:11:22.523Z,89.45
2018-12-22T22:14:45.585Z,89.35
2018-12-22T22:18:08.274Z,89.74
2018-12-22T22:21:31.740Z,89.98
2018-12-22T22:24:39.232Z,89.18
2018-12-22T22:27:46.775Z,89.30
2018-12-22T22:30:54.314Z,89.39
2018-12-22T22:34:02.240Z,89.10
2018-12-22T22:37:09.835Z,89.40
2018-12-22T22:40:17.416Z,88.70
2018-12-22T22:46:44.309Z,89.25
2018-12-22T22:50:06.087Z,89.05
2018-12-22T22:53:13.683Z,88.94
2018-12-22T22:56:21.144Z,88.83
2018-12-22T22:59:28.660Z,88.69
2018-12-22T23:05:57.204Z,89.25
2018-12-22T23:09:08.137Z,89.74
2018-12-22T23:12:15.925Z,88.65
2018-12-22T23:15:37.284Z,90.33
2018-12-22T23:18:57.448Z,90.09
2018-12-22T23:22:05.364Z,89.93
2018-12-22T23:25:12.929Z,90.31
2018-12-22T23:28:20.554Z,90.46
2018-12-22T23:31:28.052Z,90.75
2018-12-22T23:34:35.532Z,90.67
2018-12-22T23:37:44.164Z,90.96
2018-12-22T23:40:51.658Z,91.26
2018-12-22T23:43:59.264Z,91.56
2018-12-22T23:47:07.037Z,91.43
2018-12-22T23:50:14.578Z,92.05
2018-12-22T23:53:22.165Z,92.01
2018-12-22T23:56:29.643Z,92.10
2018-12-22T23:59:37.644Z,91.36
